Time;durP1;ratioP1;P1;durP2;ratioP2;P2;SDS_P1;SDS_P2;PMS_P1;PMS_P2;Temp;Humidity;BMP_temperature;BMP_pressure;BME280_temperature;BME280_humidity;BME280_pressure;Samples;Min_cycle;Max_cycle;Signal;HPM_P1;HPM_P2
2022/05/04 00:01:44;;;;;;;4.30;3.90;;;;;;;;;;5026938;28;20181;-55
2022/05/04 00:04:10;;;;;;;5.47;3.77;;;;;;;;;;5028008;28;20190;-55
2022/05/04 00:06:36;;;;;;;5.07;3.80;;;;;;;;;;4994276;28;20658;-55
2022/05/04 00:09:02;;;;;;;6.93;4.73;;;;;;;;;;5026302;28;20196;-55
2022/05/04 00:11:28;;;;;;;5.87;3.97;;;;;;;;;;5026798;28;20185;-55
2022/05/04 00:13:54;;;;;;;5.23;4.17;;;;;;;;;;5026554;28;20277;-55
2022/05/04 00:16:20;;;;;;;5.07;4.23;;;;;;;;;;5028711;28;20736;-55
2022/05/04 00:18:46;;;;;;;4.23;3.83;;;;;;;;;;5027475;28;20299;-55
2022/05/04 00:21:12;;;;;;;6.20;4.07;;;;;;;;;;5029109;28;20296;-55
2022/05/04 00:23:38;;;;;;;5.03;4.53;;;;;;;;;;5026456;28;20216;-55
2022/05/04 00:26:05;;;;;;;6.03;4.60;;;;;;;;;;5011255;28;20181;-54
2022/05/04 00:28:31;;;;;;;4.90;4.00;;;;;;;;;;5026417;28;20201;-55
2022/05/04 00:30:57;;;;;;;5.30;3.93;;;;;;;;;;5010916;28;20182;-54
2022/05/04 00:33:23;;;;;;;6.43;3.93;;;;;;;;;;5026211;28;20221;-55
2022/05/04 00:35:49;;;;;;;5.27;4.00;;;;;;;;;;5028137;28;20602;-55
2022/05/04 00:38:15;;;;;;;4.30;3.90;;;;;;;;;;5005850;28;20628;-55
2022/05/04 00:40:41;;;;;;;5.83;4.20;;;;;;;;;;5025791;28;20558;-54
2022/05/04 00:43:19;;;;;;;4.50;4.03;;;;;;;;;;5028529;28;20632;-54
2022/05/04 00:45:45;;;;;;;4.60;4.20;;;;;;;;;;5026247;28;20208;-55
2022/05/04 00:48:11;;;;;;;4.77;4.37;;;;;;;;;;5025942;28;20653;-55
2022/05/04 00:50:37;;;;;;;4.87;4.43;;;;;;;;;;5026635;28;20650;-55
2022/05/04 00:53:09;;;;;;;4.37;3.37;;;;;;;;;;5025367;28;20640;-55
2022/05/04 00:55:35;;;;;;;7.60;4.40;;;;;;;;;;5010067;28;20552;-54
2022/05/04 01:00:48;;;;;;;4.30;3.90;;;;;;;;;;5023583;28;20552;-53
2022/05/04 01:03:14;;;;;;;4.73;3.90;;;;;;;;;;5024079;28;20198;-54
2022/05/04 01:05:40;;;;;;;3.93;3.63;;;;;;;;;;5026978;28;20187;-55
2022/05/04 01:08:07;;;;;;;4.70;4.20;;;;;;;;;;5025215;28;20611;-55
2022/05/04 01:10:33;;;;;;;5.30;3.63;;;;;;;;;;5026014;28;20202;-55
2022/05/04 01:12:59;;;;;;;5.40;3.90;;;;;;;;;;5025568;28;20715;-54
2022/05/04 01:15:25;;;;;;;4.10;3.53;;;;;;;;;;5029526;28;20190;-54
2022/05/04 01:17:51;;;;;;;4.53;3.80;;;;;;;;;;5025550;28;20545;-55
2022/05/04 01:20:18;;;;;;;4.13;3.73;;;;;;;;;;5026139;28;20269;-54
2022/05/04 01:22:44;;;;;;;4.17;3.77;;;;;;;;;;5028312;28;20177;-55
2022/05/04 01:25:12;;;;;;;5.57;4.40;;;;;;;;;;5023769;28;20188;-55
2022/05/04 01:27:38;;;;;;;4.20;3.90;;;;;;;;;;5021005;28;20194;-55
2022/05/04 01:30:04;;;;;;;4.57;4.17;;;;;;;;;;5027130;28;20178;-55
2022/05/04 01:32:31;;;;;;;6.00;4.50;;;;;;;;;;5024913;28;20198;-55
2022/05/04 01:34:58;;;;;;;4.37;3.90;;;;;;;;;;5031067;28;20243;-55
2022/05/04 01:37:25;;;;;;;4.63;4.00;;;;;;;;;;5006790;28;20284;-55
2022/05/04 01:39:51;;;;;;;5.17;3.90;;;;;;;;;;4997268;28;20619;-55
2022/05/04 01:42:17;;;;;;;4.63;4.23;;;;;;;;;;5024063;28;20190;-54
2022/05/04 01:44:45;;;;;;;4.47;4.07;;;;;;;;;;5026173;28;20317;-55
2022/05/04 01:47:11;;;;;;;5.07;3.70;;;;;;;;;;5026228;28;20560;-55
2022/05/04 01:49:38;;;;;;;4.23;3.90;;;;;;;;;;5025404;28;20217;-55
2022/05/04 01:52:04;;;;;;;4.90;4.40;;;;;;;;;;5025759;28;20206;-54
2022/05/04 01:54:30;;;;;;;5.33;3.90;;;;;;;;;;5004494;28;20492;-55
2022/05/04 01:56:57;;;;;;;5.60;4.60;;;;;;;;;;5007464;28;20187;-56
2022/05/04 01:59:23;;;;;;;5.17;4.67;;;;;;;;;;5006502;28;20221;-55
2022/05/04 02:01:49;;;;;;;5.00;4.03;;;;;;;;;;5006049;28;20186;-55
2022/05/04 02:04:16;;;;;;;4.73;3.77;;;;;;;;;;5005877;28;20188;-55
2022/05/04 02:06:43;;;;;;;4.20;3.80;;;;;;;;;;5006243;28;20182;-55
2022/05/04 02:09:09;;;;;;;4.30;3.90;;;;;;;;;;5022367;28;20323;-54
2022/05/04 02:11:36;;;;;;;4.30;3.90;;;;;;;;;;5025520;28;20653;-55
2022/05/04 02:14:03;;;;;;;4.87;3.73;;;;;;;;;;5004216;28;20630;-55
2022/05/04 02:16:29;;;;;;;4.40;4.00;;;;;;;;;;5025950;28;20189;-55
2022/05/04 02:18:59;;;;;;;4.77;3.80;;;;;;;;;;5004585;28;20191;-55
2022/05/04 02:21:25;;;;;;;4.43;3.90;;;;;;;;;;5026401;28;20197;-55
2022/05/04 02:23:52;;;;;;;4.70;4.30;;;;;;;;;;5006015;28;20201;-54
2022/05/04 02:26:18;;;;;;;6.00;4.20;;;;;;;;;;5025426;28;20182;-54
2022/05/04 02:28:45;;;;;;;5.50;4.57;;;;;;;;;;5005713;28;20603;-54
2022/05/04 02:31:11;;;;;;;5.77;4.00;;;;;;;;;;5005796;28;20197;-54
2022/05/04 02:33:37;;;;;;;6.67;4.00;;;;;;;;;;5026706;28;20697;-54
2022/05/04 02:38:49;;;;;;;6.03;4.70;;;;;;;;;;5021972;28;20671;-54
2022/05/04 02:41:17;;;;;;;6.30;4.13;;;;;;;;;;5025590;28;20202;-54
2022/05/04 02:43:43;;;;;;;5.13;3.87;;;;;;;;;;5025284;28;20216;-54
2022/05/04 02:46:14;;;;;;;4.33;3.73;;;;;;;;;;4992415;28;20205;-54
2022/05/04 02:48:47;;;;;;;4.43;4.03;;;;;;;;;;5024218;28;20210;-54
2022/05/04 02:51:14;;;;;;;5.27;4.03;;;;;;;;;;5026554;28;20575;-54
2022/05/04 02:53:40;;;;;;;5.23;4.50;;;;;;;;;;5023608;28;20210;-55
2022/05/04 02:56:10;;;;;;;4.30;3.90;;;;;;;;;;5031576;28;20812;-55
2022/05/04 02:58:37;;;;;;;4.07;3.77;;;;;;;;;;5024491;28;20193;-54
2022/05/04 03:03:54;;;;;;;5.50;4.23;;;;;;;;;;5025078;28;20192;-54
2022/05/04 03:06:20;;;;;;;5.87;3.83;;;;;;;;;;5009002;28;20251;-54
2022/05/04 03:08:47;;;;;;;4.43;4.03;;;;;;;;;;5028451;28;20248;-54
2022/05/04 03:13:59;;;;;;;7.50;4.60;;;;;;;;;;5025678;28;20288;-59
2022/05/04 03:16:26;;;;;;;6.43;5.27;;;;;;;;;;5026668;28;20608;-54
2022/05/04 03:18:52;;;;;;;8.03;4.67;;;;;;;;;;5006935;28;20656;-55
2022/05/04 03:21:18;;;;;;;7.53;3.97;;;;;;;;;;5026837;28;20185;-55
2022/05/04 03:23:44;;;;;;;7.20;3.80;;;;;;;;;;5008144;28;20185;-55
2022/05/04 03:26:11;;;;;;;4.97;3.97;;;;;;;;;;5025256;28;20178;-55
2022/05/04 03:28:40;;;;;;;5.20;3.87;;;;;;;;;;5008175;28;20239;-55
2022/05/04 03:31:07;;;;;;;6.97;6.37;;;;;;;;;;5025291;28;20185;-54
2022/05/04 03:33:33;;;;;;;5.13;4.17;;;;;;;;;;5004373;28;20226;-54
2022/05/04 03:35:59;;;;;;;7.50;4.67;;;;;;;;;;5014365;28;20178;-54
2022/05/04 03:38:25;;;;;;;8.37;6.37;;;;;;;;;;5012368;28;20182;-55
2022/05/04 03:40:52;;;;;;;5.23;4.70;;;;;;;;;;5007016;28;20229;-54
2022/05/04 03:43:18;;;;;;;8.23;7.53;;;;;;;;;;4994909;28;20210;-54
2022/05/04 03:45:44;;;;;;;5.17;3.67;;;;;;;;;;4997222;28;20607;-54
2022/05/04 03:48:11;;;;;;;5.07;4.00;;;;;;;;;;5004505;28;21067;-55
2022/05/04 03:50:37;;;;;;;4.90;3.93;;;;;;;;;;5006440;28;20183;-55
2022/05/04 03:53:03;;;;;;;5.53;4.03;;;;;;;;;;4994770;28;20182;-54
2022/05/04 03:55:29;;;;;;;6.30;3.87;;;;;;;;;;4988841;28;20193;-55
2022/05/04 03:57:55;;;;;;;6.07;5.47;;;;;;;;;;5008780;28;20174;-55
2022/05/04 04:00:21;;;;;;;4.43;3.70;;;;;;;;;;5004611;28;20292;-54
2022/05/04 04:02:48;;;;;;;5.30;4.80;;;;;;;;;;5005777;28;20206;-55
2022/05/04 04:05:15;;;;;;;8.47;7.77;;;;;;;;;;5015518;28;20178;-54
2022/05/04 04:07:41;;;;;;;5.57;4.60;;;;;;;;;;4986693;28;20604;-54
2022/05/04 04:10:08;;;;;;;5.23;4.07;;;;;;;;;;4986197;28;20179;-54
2022/05/04 04:12:34;;;;;;;4.80;4.00;;;;;;;;;;4987657;28;20179;-55
2022/05/04 04:15:01;;;;;;;5.77;4.40;;;;;;;;;;5011964;28;20270;-54
2022/05/04 04:17:27;;;;;;;4.33;3.87;;;;;;;;;;5007424;28;20182;-56
2022/05/04 04:22:38;;;;;;;4.40;3.83;;;;;;;;;;5009512;28;20197;-54
2022/05/04 04:25:05;;;;;;;6.00;3.87;;;;;;;;;;4991713;28;20185;-55
2022/05/04 04:27:33;;;;;;;6.40;4.03;;;;;;;;;;4992042;28;20201;-55
2022/05/04 04:30:00;;;;;;;8.00;7.17;;;;;;;;;;5010344;28;20984;-55
2022/05/04 04:32:26;;;;;;;4.63;3.80;;;;;;;;;;5006129;28;20542;-54
2022/05/04 04:34:52;;;;;;;4.78;4.38;;;;;;;;;;5019093;28;20439;-55
2022/05/04 04:37:18;;;;;;;5.60;3.93;;;;;;;;;;5026199;28;20182;-55
2022/05/04 04:39:44;;;;;;;5.23;4.73;;;;;;;;;;5005457;28;20181;-55
2022/05/04 04:42:12;;;;;;;6.50;3.90;;;;;;;;;;5009517;28;20178;-54
2022/05/04 04:44:39;;;;;;;5.33;4.53;;;;;;;;;;5026946;28;20328;-55
2022/05/04 04:47:05;;;;;;;7.57;5.20;;;;;;;;;;5025825;28;20243;-55
2022/05/04 04:49:32;;;;;;;6.87;3.67;;;;;;;;;;5007135;28;20300;-55
2022/05/04 04:51:58;;;;;;;4.53;3.90;;;;;;;;;;5010860;28;20236;-55
2022/05/04 04:54:24;;;;;;;7.53;4.50;;;;;;;;;;5008093;28;20175;-54
2022/05/04 04:56:50;;;;;;;6.03;4.77;;;;;;;;;;5029180;28;20181;-55
2022/05/04 04:59:17;;;;;;;5.07;4.33;;;;;;;;;;5026123;28;20265;-55
2022/05/04 05:01:43;;;;;;;5.30;3.83;;;;;;;;;;5029115;28;20181;-55
2022/05/04 05:04:09;;;;;;;5.30;4.80;;;;;;;;;;5008487;28;20181;-55
2022/05/04 05:06:35;;;;;;;5.57;4.43;;;;;;;;;;5028659;28;20191;-54
2022/05/04 05:09:01;;;;;;;5.30;3.80;;;;;;;;;;5024000;28;20196;-55
2022/05/04 05:11:27;;;;;;;5.03;4.50;;;;;;;;;;5008658;28;20210;-55
2022/05/04 05:16:38;;;;;;;6.17;4.23;;;;;;;;;;5019805;28;20259;-54
2022/05/04 05:19:04;;;;;;;5.83;4.07;;;;;;;;;;5008047;28;20584;-55
2022/05/04 05:21:30;;;;;;;4.63;4.13;;;;;;;;;;5026632;28;20647;-55
2022/05/04 05:23:56;;;;;;;4.80;4.30;;;;;;;;;;5025814;28;20255;-55
2022/05/04 05:26:22;;;;;;;7.23;4.10;;;;;;;;;;5022067;28;20656;-54
2022/05/04 05:28:48;;;;;;;5.07;4.33;;;;;;;;;;5027317;28;20229;-55
2022/05/04 05:31:14;;;;;;;7.37;5.37;;;;;;;;;;5027833;28;20264;-54
2022/05/04 05:33:40;;;;;;;5.80;4.20;;;;;;;;;;5021885;28;20670;-55
2022/05/04 05:36:07;;;;;;;5.03;4.50;;;;;;;;;;5025478;28;20669;-55
2022/05/04 05:38:33;;;;;;;5.20;4.43;;;;;;;;;;5021491;28;20208;-55
2022/05/04 05:41:01;;;;;;;4.60;4.20;;;;;;;;;;5028886;28;20192;-55
2022/05/04 05:43:28;;;;;;;7.93;4.70;;;;;;;;;;5026978;28;20527;-54
2022/05/04 05:45:54;;;;;;;6.60;6.00;;;;;;;;;;5022341;28;20217;-55
2022/05/04 05:48:20;;;;;;;11.23;7.10;;;;;;;;;;5023853;28;20613;-55
2022/05/04 05:50:47;;;;;;;9.90;7.03;;;;;;;;;;5026310;28;20662;-55
2022/05/04 05:53:14;;;;;;;11.73;7.43;;;;;;;;;;5027498;28;21088;-55
2022/05/04 05:55:41;;;;;;;9.13;7.10;;;;;;;;;;5028193;28;20640;-55
2022/05/04 05:58:07;;;;;;;8.27;6.83;;;;;;;;;;5023036;28;20196;-55
2022/05/04 06:00:33;;;;;;;11.83;7.97;;;;;;;;;;5022354;28;20429;-55
2022/05/04 06:02:59;;;;;;;8.27;6.43;;;;;;;;;;5020937;28;20432;-55
2022/05/04 06:05:25;;;;;;;12.67;7.20;;;;;;;;;;5025569;28;20220;-55
2022/05/04 06:07:51;;;;;;;16.47;6.83;;;;;;;;;;5026487;28;20304;-55
2022/05/04 06:10:17;;;;;;;9.77;7.33;;;;;;;;;;5026476;28;20185;-55
2022/05/04 06:12:44;;;;;;;12.07;6.87;;;;;;;;;;5025749;28;20178;-55
2022/05/04 06:15:10;;;;;;;18.27;7.43;;;;;;;;;;5026604;28;20186;-55
2022/05/04 06:17:37;;;;;;;12.47;7.43;;;;;;;;;;5025777;28;20262;-55
2022/05/04 06:20:04;;;;;;;8.63;6.53;;;;;;;;;;5026329;28;20192;-54
2022/05/04 06:22:30;;;;;;;11.00;7.33;;;;;;;;;;5024373;28;20628;-54
2022/05/04 06:24:57;;;;;;;14.60;8.00;;;;;;;;;;5022558;28;20197;-55
2022/05/04 06:27:23;;;;;;;11.13;7.43;;;;;;;;;;5022585;28;20645;-55
2022/05/04 06:35:18;;;;;;;15.17;7.30;;;;;;;;;;5023047;28;20614;-55
2022/05/04 06:37:44;;;;;;;10.40;7.33;;;;;;;;;;5026232;28;20264;-54
2022/05/04 06:40:10;;;;;;;13.17;7.33;;;;;;;;;;5026505;28;20189;-55
2022/05/04 06:42:36;;;;;;;11.87;6.93;;;;;;;;;;5025180;28;20198;-55
2022/05/04 06:45:03;;;;;;;8.90;7.27;;;;;;;;;;5019142;28;20189;-54
2022/05/04 06:47:29;;;;;;;10.80;7.10;;;;;;;;;;5007772;28;20664;-55
2022/05/04 06:49:55;;;;;;;7.87;6.57;;;;;;;;;;5025162;28;20277;-55
2022/05/04 06:52:24;;;;;;;12.83;7.70;;;;;;;;;;5026279;28;20194;-53
2022/05/04 06:54:50;;;;;;;11.80;8.23;;;;;;;;;;5024313;28;20832;-55
2022/05/04 06:57:17;;;;;;;14.47;8.13;;;;;;;;;;5021358;28;20672;-54
2022/05/04 06:59:43;;;;;;;15.23;7.40;;;;;;;;;;5023563;28;20552;-54
2022/05/04 07:02:09;;;;;;;15.40;7.97;;;;;;;;;;5022308;28;20212;-54
2022/05/04 07:04:35;;;;;;;11.00;8.53;;;;;;;;;;5022702;28;20182;-54
2022/05/04 07:07:01;;;;;;;10.93;7.77;;;;;;;;;;5006212;28;20186;-54
2022/05/04 07:09:27;;;;;;;9.67;8.00;;;;;;;;;;5024836;28;20288;-54
2022/05/04 07:11:53;;;;;;;14.80;7.73;;;;;;;;;;5023307;28;20624;-54
2022/05/04 07:14:19;;;;;;;11.93;8.65;;;;;;;;;;5016814;28;20412;-54
2022/05/04 07:16:46;;;;;;;12.40;8.70;;;;;;;;;;5021921;28;20181;-55
2022/05/04 07:19:13;;;;;;;12.30;7.77;;;;;;;;;;5022096;28;20261;-54
2022/05/04 07:21:39;;;;;;;15.60;8.90;;;;;;;;;;5021731;28;20269;-55
2022/05/04 07:24:06;;;;;;;11.07;7.70;;;;;;;;;;5026831;28;20264;-55
2022/05/04 07:26:32;;;;;;;10.83;8.87;;;;;;;;;;5017704;28;21009;-54
2022/05/04 07:28:58;;;;;;;17.80;10.33;;;;;;;;;;5002007;28;20213;-55
2022/05/04 07:31:24;;;;;;;14.63;8.93;;;;;;;;;;5026155;28;20529;-54
2022/05/04 07:33:50;;;;;;;10.90;7.90;;;;;;;;;;5024208;28;20307;-54
2022/05/04 07:36:16;;;;;;;12.50;8.47;;;;;;;;;;5027079;28;20190;-55
2022/05/04 07:38:42;;;;;;;14.83;8.23;;;;;;;;;;5026481;28;20548;-53
2022/05/04 07:43:53;;;;;;;13.07;7.67;;;;;;;;;;5022426;28;20217;-54
2022/05/04 07:46:19;;;;;;;8.63;7.10;;;;;;;;;;5025834;28;20603;-54
2022/05/04 07:48:45;;;;;;;9.97;7.77;;;;;;;;;;5024534;28;20197;-54
2022/05/04 07:51:11;;;;;;;10.27;8.03;;;;;;;;;;5029749;28;20483;-55
2022/05/04 07:53:37;;;;;;;9.60;6.93;;;;;;;;;;5030823;28;20186;-54
2022/05/04 07:56:04;;;;;;;11.97;7.67;;;;;;;;;;4993322;28;20185;-54
2022/05/04 07:58:30;;;;;;;10.53;6.60;;;;;;;;;;5026902;28;20644;-53
2022/05/04 08:06:25;;;;;;;10.97;8.17;;;;;;;;;;5028690;28;20273;-56
2022/05/04 08:08:51;;;;;;;9.07;7.10;;;;;;;;;;5028260;28;20209;-55
2022/05/04 08:11:17;;;;;;;13.23;6.77;;;;;;;;;;5029008;28;20199;-54
2022/05/04 08:13:43;;;;;;;10.47;7.37;;;;;;;;;;5028825;28;20287;-54
2022/05/04 08:16:11;;;;;;;9.37;6.80;;;;;;;;;;5027220;28;20968;-55
2022/05/04 08:18:40;;;;;;;10.27;6.93;;;;;;;;;;5027234;28;20415;-55
2022/05/04 08:21:06;;;;;;;11.00;6.90;;;;;;;;;;5027266;28;20407;-54
2022/05/04 08:23:32;;;;;;;8.83;6.90;;;;;;;;;;5029153;28;20726;-55
2022/05/04 08:25:58;;;;;;;13.27;6.47;;;;;;;;;;5028102;28;20218;-54
2022/05/04 08:28:24;;;;;;;9.30;6.87;;;;;;;;;;5025722;28;20656;-55
2022/05/04 08:30:50;;;;;;;11.67;6.30;;;;;;;;;;5023798;28;20217;-54
2022/05/04 08:33:16;;;;;;;11.63;7.07;;;;;;;;;;5028016;28;20595;-54
2022/05/04 08:35:42;;;;;;;13.13;6.47;;;;;;;;;;5029300;28;20193;-55
2022/05/04 08:38:08;;;;;;;10.18;7.22;;;;;;;;;;5028134;28;20485;-54
2022/05/04 08:40:34;;;;;;;11.27;6.60;;;;;;;;;;5028625;28;20442;-54
2022/05/04 08:43:05;;;;;;;8.03;7.00;;;;;;;;;;5028497;28;20289;-54
2022/05/04 08:45:32;;;;;;;10.90;6.93;;;;;;;;;;5029921;28;20700;-54
2022/05/04 08:48:00;;;;;;;13.27;7.63;;;;;;;;;;5026842;28;20181;-55
2022/05/04 08:50:26;;;;;;;8.37;6.33;;;;;;;;;;5027635;28;20182;-54
2022/05/04 08:52:55;;;;;;;10.33;6.83;;;;;;;;;;5027046;28;20196;-55
2022/05/04 08:55:22;;;;;;;7.43;6.63;;;;;;;;;;5030268;28;20644;-54
2022/05/04 08:57:48;;;;;;;12.20;7.40;;;;;;;;;;5027242;28;20291;-55
2022/05/04 09:00:15;;;;;;;9.40;7.10;;;;;;;;;;5007306;28;20181;-54
2022/05/04 09:02:41;;;;;;;10.97;7.47;;;;;;;;;;5028486;28;20178;-54
2022/05/04 09:05:23;;;;;;;16.03;7.90;;;;;;;;;;5009722;28;20628;-55
2022/05/04 09:07:51;;;;;;;8.37;6.77;;;;;;;;;;5027237;28;20533;-54
2022/05/04 09:10:18;;;;;;;13.07;8.77;;;;;;;;;;5030304;28;20236;-56
2022/05/04 09:12:45;;;;;;;11.77;7.93;;;;;;;;;;5027908;28;20188;-55
2022/05/04 09:15:17;;;;;;;9.13;7.10;;;;;;;;;;5028193;28;20663;-55
2022/05/04 09:17:43;;;;;;;9.67;7.60;;;;;;;;;;5027517;28;20439;-55
2022/05/04 09:22:54;;;;;;;14.77;7.30;;;;;;;;;;5027125;28;20280;-55
2022/05/04 09:25:21;;;;;;;12.10;6.77;;;;;;;;;;5029266;28;20196;-55
2022/05/04 09:27:47;;;;;;;11.70;7.17;;;;;;;;;;5027797;28;20639;-56
2022/05/04 09:30:14;;;;;;;11.37;7.30;;;;;;;;;;5026905;28;20205;-55
2022/05/04 09:32:41;;;;;;;14.37;7.80;;;;;;;;;;5028698;28;20657;-56
2022/05/04 09:35:13;;;;;;;8.67;7.77;;;;;;;;;;5028230;28;20221;-55
2022/05/04 09:45:57;;;;;;;8.73;6.97;;;;;;;;;;5028479;28;20274;-55
2022/05/04 09:48:29;;;;;;;10.57;7.40;;;;;;;;;;5027459;28;20694;-56
2022/05/04 09:51:12;;;;;;;12.87;8.60;;;;;;;;;;5011567;28;20244;-55
2022/05/04 09:53:39;;;;;;;12.37;8.53;;;;;;;;;;5028066;28;20206;-56
2022/05/04 09:56:09;;;;;;;13.70;8.47;;;;;;;;;;5010418;28;20659;-55
2022/05/04 09:58:36;;;;;;;10.23;8.27;;;;;;;;;;5008130;28;20185;-56
2022/05/04 10:01:02;;;;;;;11.47;7.33;;;;;;;;;;5026093;28;20268;-56
2022/05/04 10:03:32;;;;;;;11.33;8.80;;;;;;;;;;5009192;28;20214;-56
2022/05/04 10:06:00;;;;;;;13.00;8.50;;;;;;;;;;5021611;28;20189;-55
2022/05/04 10:08:35;;;;;;;11.07;8.23;;;;;;;;;;5022675;28;20743;-55
2022/05/04 10:11:09;;;;;;;9.60;7.53;;;;;;;;;;5023898;28;20185;-54
2022/05/04 10:13:38;;;;;;;11.27;7.73;;;;;;;;;;5005707;28;20194;-56
2022/05/04 10:16:06;;;;;;;9.40;7.40;;;;;;;;;;5010186;28;20266;-55
2022/05/04 10:18:33;;;;;;;9.23;7.60;;;;;;;;;;5006694;28;20232;-54
2022/05/04 10:21:11;;;;;;;9.37;7.50;;;;;;;;;;5027036;28;20182;-56
2022/05/04 10:23:43;;;;;;;12.10;8.77;;;;;;;;;;5004210;28;20243;-55
2022/05/04 10:26:14;;;;;;;12.20;9.00;;;;;;;;;;5023219;28;20178;-55
2022/05/04 10:31:30;;;;;;;14.30;9.40;;;;;;;;;;5002835;28;20200;-54
2022/05/04 10:33:57;;;;;;;11.73;9.10;;;;;;;;;;5024051;28;20269;-53
2022/05/04 10:36:30;;;;;;;12.00;9.23;;;;;;;;;;5025499;28;20704;-54
2022/05/04 10:38:57;;;;;;;10.50;9.37;;;;;;;;;;5005119;28;20508;-52
2022/05/04 10:41:41;;;;;;;11.83;10.53;;;;;;;;;;5024654;28;20205;-55
2022/05/04 10:44:10;;;;;;;12.20;7.97;;;;;;;;;;5024261;28;20603;-56
2022/05/04 10:46:41;;;;;;;15.20;8.30;;;;;;;;;;5023660;28;20642;-56
2022/05/04 10:49:10;;;;;;;8.67;7.53;;;;;;;;;;5024973;28;20581;-56
2022/05/04 10:51:40;;;;;;;11.00;8.07;;;;;;;;;;5026019;28;20184;-56
2022/05/04 10:54:10;;;;;;;11.63;8.07;;;;;;;;;;5008574;28;20595;-56
2022/05/04 10:56:57;;;;;;;14.53;9.17;;;;;;;;;;5026607;28;20537;-56
2022/05/04 10:59:26;;;;;;;10.23;8.67;;;;;;;;;;5023562;28;20242;-54
2022/05/04 11:01:55;;;;;;;13.07;8.63;;;;;;;;;;5007556;28;20211;-54
2022/05/04 11:04:22;;;;;;;12.23;8.60;;;;;;;;;;5026779;28;20211;-55
2022/05/04 11:06:56;;;;;;;12.60;7.83;;;;;;;;;;5027703;28;20184;-55
2022/05/04 11:09:43;;;;;;;12.87;7.40;;;;;;;;;;5025416;28;20197;-54
2022/05/04 11:12:10;;;;;;;9.47;7.23;;;;;;;;;;4993535;28;20268;-55
2022/05/04 11:14:36;;;;;;;11.50;7.13;;;;;;;;;;5024310;28;20186;-55
2022/05/04 11:17:09;;;;;;;13.93;7.80;;;;;;;;;;5021095;28;20677;-55
2022/05/04 11:19:35;;;;;;;8.83;7.50;;;;;;;;;;4990564;28;20223;-55
2022/05/04 11:22:02;;;;;;;9.27;7.43;;;;;;;;;;5018653;28;20185;-56
2022/05/04 11:24:28;;;;;;;11.02;7.85;;;;;;;;;;5003982;28;20520;-56
2022/05/04 11:26:55;;;;;;;13.27;7.00;;;;;;;;;;5022507;28;20185;-55
2022/05/04 11:29:23;;;;;;;14.53;7.23;;;;;;;;;;5020911;28;20212;-56
2022/05/04 11:31:56;;;;;;;7.47;6.77;;;;;;;;;;5005952;28;20183;-56
2022/05/04 11:34:26;;;;;;;8.70;6.90;;;;;;;;;;5026044;28;20213;-56
2022/05/04 11:36:53;;;;;;;8.77;7.07;;;;;;;;;;5026654;28;20173;-56
2022/05/04 11:39:20;;;;;;;10.87;7.13;;;;;;;;;;5026562;28;20501;-55
2022/05/04 11:41:49;;;;;;;8.07;5.93;;;;;;;;;;5021204;28;20653;-55
2022/05/04 11:44:17;;;;;;;9.40;6.53;;;;;;;;;;5008160;28;20192;-56
2022/05/04 11:46:44;;;;;;;9.13;6.73;;;;;;;;;;5027145;28;20186;-55
2022/05/04 11:49:10;;;;;;;9.03;6.43;;;;;;;;;;5025442;28;20856;-56
2022/05/04 11:51:37;;;;;;;8.77;6.50;;;;;;;;;;5027130;28;20170;-55
2022/05/04 11:54:10;;;;;;;10.67;6.83;;;;;;;;;;5008425;28;20183;-54
2022/05/04 11:56:36;;;;;;;10.60;6.77;;;;;;;;;;4994330;28;20181;-56
2022/05/04 11:59:07;;;;;;;7.97;6.67;;;;;;;;;;5009161;28;20183;-57
2022/05/04 12:01:33;;;;;;;7.70;5.37;;;;;;;;;;5008448;28;20190;-57
2022/05/04 12:04:01;;;;;;;11.27;6.53;;;;;;;;;;5007686;28;20557;-57
2022/05/04 12:06:27;;;;;;;6.80;6.10;;;;;;;;;;5027323;28;20674;-57
2022/05/04 12:08:54;;;;;;;8.43;5.97;;;;;;;;;;5007735;28;20205;-57
2022/05/04 12:11:22;;;;;;;7.47;5.47;;;;;;;;;;5009379;28;20177;-55
2022/05/04 12:13:48;;;;;;;9.77;5.53;;;;;;;;;;5026365;28;20710;-55
2022/05/04 12:16:15;;;;;;;10.20;6.23;;;;;;;;;;5008639;28;20170;-55
2022/05/04 12:18:42;;;;;;;6.37;5.43;;;;;;;;;;4990186;28;20525;-55
2022/05/04 12:21:12;;;;;;;8.87;7.97;;;;;;;;;;5023593;28;20621;-56
2022/05/04 12:23:43;;;;;;;8.00;5.87;;;;;;;;;;5004419;28;20175;-56
2022/05/04 12:26:10;;;;;;;6.70;5.73;;;;;;;;;;5018436;28;20943;-54
2022/05/04 12:33:08;;;;;;;10.30;7.20;;;;;;;;;;5008967;28;20205;-56
2022/05/04 12:34:16;;;;;;;7.13;6.07;;;;;;;;;;5007411;28;20255;-56
2022/05/04 12:36:45;;;;;;;9.50;6.23;;;;;;;;;;5005276;28;20174;-57
2022/05/04 12:39:11;;;;;;;11.20;5.20;;;;;;;;;;5025977;28;20205;-57
2022/05/04 12:41:37;;;;;;;6.87;5.50;;;;;;;;;;5027364;28;20212;-57
2022/05/04 12:44:06;;;;;;;9.67;6.37;;;;;;;;;;5021967;28;20299;-56
2022/05/04 12:46:33;;;;;;;8.63;5.43;;;;;;;;;;5027166;28;20181;-56
2022/05/04 12:48:59;;;;;;;7.57;5.63;;;;;;;;;;5023794;28;20201;-56
2022/05/04 12:51:29;;;;;;;6.30;5.37;;;;;;;;;;5008766;28;20544;-56
2022/05/04 12:53:55;;;;;;;7.47;5.27;;;;;;;;;;5004899;28;20644;-56
2022/05/04 12:59:06;;;;;;;7.53;5.40;;;;;;;;;;5026959;28;20643;-55
2022/05/04 13:01:36;;;;;;;9.93;5.60;;;;;;;;;;5027106;28;20323;-55
2022/05/04 13:04:02;;;;;;;8.00;5.87;;;;;;;;;;5007741;28;20595;-56
2022/05/04 13:06:28;;;;;;;9.03;6.07;;;;;;;;;;5026609;28;20549;-55
2022/05/04 13:08:55;;;;;;;6.30;5.70;;;;;;;;;;5025453;28;20813;-56
2022/05/04 13:11:22;;;;;;;7.53;5.67;;;;;;;;;;5010229;28;20186;-55
2022/05/04 13:13:49;;;;;;;9.75;6.18;;;;;;;;;;5028675;28;20868;-58
2022/05/04 13:16:15;;;;;;;6.90;5.37;;;;;;;;;;5030241;28;20162;-58
2022/05/04 13:18:45;;;;;;;6.97;5.77;;;;;;;;;;5004840;28;20183;-58
2022/05/04 13:21:22;;;;;;;;;;;;;;;;;;;;;
2022/05/04 13:23:48;;;;;;;8.77;5.73;;;;;;;;;;5024902;28;20179;-58
2022/05/04 13:26:18;;;;;;;6.70;6.00;;;;;;;;;;5010763;28;20174;-59
2022/05/04 13:28:47;;;;;;;9.53;5.97;;;;;;;;;;4991005;28;20214;-58
2022/05/04 13:31:13;;;;;;;7.83;5.47;;;;;;;;;;5025157;28;20178;-60
2022/05/04 13:33:41;;;;;;;8.47;5.83;;;;;;;;;;5009226;28;20216;-60
2022/05/04 13:36:08;;;;;;;9.03;5.83;;;;;;;;;;5007907;28;20181;-60
2022/05/04 13:38:34;;;;;;;6.80;5.73;;;;;;;;;;5024818;28;20182;-57
2022/05/04 13:41:00;;;;;;;6.87;5.53;;;;;;;;;;5029975;28;20189;-54
2022/05/04 13:43:27;;;;;;;12.63;7.67;;;;;;;;;;5028460;28;20190;-53
2022/05/04 13:45:53;;;;;;;8.00;6.40;;;;;;;;;;5005223;28;20302;-54
2022/05/04 13:48:19;;;;;;;7.73;6.93;;;;;;;;;;5001096;28;20188;-53
2022/05/04 13:53:31;;;;;;;7.77;6.43;;;;;;;;;;5028430;28;20194;-54
2022/05/04 13:55:57;;;;;;;9.70;7.27;;;;;;;;;;5023200;28;21807;-53
2022/05/04 13:58:24;;;;;;;11.10;7.30;;;;;;;;;;5021889;28;20181;-54
2022/05/04 14:00:51;;;;;;;10.13;7.27;;;;;;;;;;5025618;28;20305;-54
2022/05/04 14:03:17;;;;;;;11.77;10.23;;;;;;;;;;5005490;28;20508;-54
2022/05/04 14:05:44;;;;;;;9.83;6.50;;;;;;;;;;5025075;28;20171;-54
2022/05/04 14:08:10;;;;;;;10.43;6.00;;;;;;;;;;5026168;28;20815;-53
2022/05/04 14:10:39;;;;;;;9.40;5.73;;;;;;;;;;5026930;28;20689;-53
2022/05/04 14:13:05;;;;;;;8.97;6.50;;;;;;;;;;5023234;28;20203;-53
2022/05/04 14:15:31;;;;;;;11.00;7.03;;;;;;;;;;5025479;28;20276;-54
2022/05/04 14:17:57;;;;;;;7.63;6.20;;;;;;;;;;5022853;28;20907;-54
2022/05/04 14:20:24;;;;;;;12.50;7.53;;;;;;;;;;5027497;28;20672;-54
2022/05/04 14:22:50;;;;;;;11.40;6.47;;;;;;;;;;5003958;28;20196;-54
2022/05/04 14:25:16;;;;;;;9.27;6.23;;;;;;;;;;5023430;28;20180;-54
2022/05/04 14:27:43;;;;;;;13.17;7.07;;;;;;;;;;5023081;28;20193;-54
2022/05/04 14:30:10;;;;;;;11.03;6.90;;;;;;;;;;5026277;28;20219;-53
2022/05/04 14:32:36;;;;;;;8.33;6.07;;;;;;;;;;5023679;28;20248;-54
2022/05/04 14:35:02;;;;;;;11.20;6.63;;;;;;;;;;5026461;28;20258;-53
2022/05/04 14:37:30;;;;;;;8.30;6.97;;;;;;;;;;5021093;28;20191;-52
2022/05/04 14:39:57;;;;;;;7.77;6.80;;;;;;;;;;5006994;28;20236;-52
2022/05/04 14:42:23;;;;;;;8.60;6.93;;;;;;;;;;5026601;28;20178;-52
2022/05/04 14:44:49;;;;;;;13.90;7.87;;;;;;;;;;5024394;28;20182;-52
2022/05/04 14:47:15;;;;;;;8.20;6.30;;;;;;;;;;5027067;28;20283;-53
2022/05/04 14:49:44;;;;;;;10.47;7.63;;;;;;;;;;5024272;28;20233;-53
2022/05/04 14:52:12;;;;;;;11.63;7.20;;;;;;;;;;5000854;28;20274;-52
2022/05/04 14:54:38;;;;;;;10.27;6.83;;;;;;;;;;5025435;28;20633;-52
2022/05/04 14:57:04;;;;;;;7.97;6.37;;;;;;;;;;5007994;28;20181;-53
2022/05/04 14:59:31;;;;;;;8.27;6.03;;;;;;;;;;5025644;28;20527;-54
2022/05/04 15:01:57;;;;;;;8.83;6.67;;;;;;;;;;5008518;28;20652;-52
2022/05/04 15:07:11;;;;;;;9.57;7.17;;;;;;;;;;5023145;28;20356;-52
2022/05/04 15:09:37;;;;;;;9.97;6.20;;;;;;;;;;5003420;28;20234;-52
2022/05/04 15:12:04;;;;;;;9.87;6.77;;;;;;;;;;5002641;28;20187;-53
2022/05/04 15:14:34;;;;;;;8.40;6.43;;;;;;;;;;5024004;28;20648;-53
2022/05/04 15:17:01;;;;;;;9.60;6.20;;;;;;;;;;5008671;28;20551;-54
2022/05/04 15:19:27;;;;;;;8.20;5.83;;;;;;;;;;5020017;28;20204;-53
2022/05/04 15:21:54;;;;;;;10.57;7.87;;;;;;;;;;5024779;28;20738;-54
2022/05/04 15:24:20;;;;;;;8.37;6.43;;;;;;;;;;5010148;28;20276;-53
2022/05/04 15:26:47;;;;;;;11.93;6.73;;;;;;;;;;5009020;28;20185;-53
2022/05/04 15:29:14;;;;;;;8.37;6.40;;;;;;;;;;5005776;28;20271;-54
2022/05/04 15:31:41;;;;;;;8.57;6.70;;;;;;;;;;5025673;28;20650;-53
2022/05/04 15:34:07;;;;;;;10.47;7.87;;;;;;;;;;5024522;28;20221;-53